createdAt,value
2022-08-12T00:00:34.697Z,21.74
2022-08-12T00:03:20.887Z,21.78
2022-08-12T00:06:07.929Z,21.80
2022-08-12T00:08:55.884Z,21.85
2022-08-12T00:11:41.851Z,21.85
2022-08-12T00:14:27.037Z,21.94
2022-08-12T00:17:11.950Z,21.89
2022-08-12T00:19:57.409Z,21.90
2022-08-12T00:22:42.386Z,21.78
2022-08-12T00:26:05.506Z,21.75
2022-08-12T00:28:32.744Z,21.66
2022-08-12T00:31:17.592Z,21.78
2022-08-12T00:34:02.043Z,21.63
2022-08-12T00:36:50.118Z,21.70
2022-08-12T00:39:35.352Z,21.62
2022-08-12T00:42:10.869Z,21.79
2022-08-12T00:44:48.325Z,21.81
2022-08-12T00:47:25.733Z,21.81
2022-08-12T00:49:53.414Z,21.76
2022-08-12T00:52:20.415Z,21.64
2022-08-12T00:54:50.334Z,21.32
2022-08-12T00:57:28.143Z,21.44
2022-08-12T01:00:00.311Z,21.54
2022-08-12T01:02:31.833Z,21.36
2022-08-12T01:05:24.712Z,21.32
2022-08-12T01:08:10.113Z,21.33
2022-08-12T01:10:58.361Z,21.51
2022-08-12T01:13:26.875Z,21.24
2022-08-12T01:15:56.971Z,21.15
2022-08-12T01:18:25.573Z,21.31
2022-08-12T01:20:51.363Z,21.00
2022-08-12T01:23:40.561Z,20.99
2022-08-12T01:26:09.672Z,20.92
2022-08-12T01:28:37.981Z,20.80
2022-08-12T01:31:05.502Z,20.71
2022-08-12T01:33:56.571Z,20.89
2022-08-12T01:36:26.246Z,20.97
2022-08-12T01:38:55.677Z,20.99
2022-08-12T01:41:25.283Z,20.93
2022-08-12T01:43:53.627Z,20.91
2022-08-12T01:46:36.101Z,20.87
2022-08-12T01:49:40.932Z,20.86
2022-08-12T01:52:21.591Z,20.96
2022-08-12T01:54:49.525Z,21.06
2022-08-12T01:57:59.821Z,20.85
2022-08-12T02:00:46.136Z,20.85
2022-08-12T02:03:51.901Z,20.82
2022-08-12T02:07:25.077Z,20.67
2022-08-12T02:10:49.218Z,20.59
2022-08-12T02:13:49.592Z,20.67
2022-08-12T02:16:53.210Z,20.59
2022-08-12T02:19:40.961Z,20.53
2022-08-12T02:22:26.772Z,20.18
2022-08-12T02:24:58.144Z,20.15
2022-08-12T02:27:27.182Z,20.31
2022-08-12T02:29:52.982Z,20.41
2022-08-12T02:32:20.325Z,20.47
2022-08-12T02:34:46.486Z,20.18
2022-08-12T02:37:14.647Z,20.36
2022-08-12T02:39:46.909Z,20.25
2022-08-12T02:42:14.702Z,20.20
2022-08-12T02:44:44.005Z,20.32
2022-08-12T02:47:58.508Z,20.16
2022-08-12T02:50:01.134Z,20.31
2022-08-12T02:52:27.991Z,20.24
2022-08-12T02:55:02.688Z,20.21
2022-08-12T02:57:31.065Z,20.22
2022-08-12T02:59:59.723Z,20.26
2022-08-12T03:02:29.017Z,20.21
2022-08-12T03:04:56.782Z,20.35
2022-08-12T03:07:55.148Z,20.47
2022-08-12T03:10:15.944Z,20.55
2022-08-12T03:12:49.247Z,20.56
2022-08-12T03:15:22.011Z,20.58
2022-08-12T03:18:25.894Z,20.47
2022-08-12T03:20:55.116Z,20.33
2022-08-12T03:23:29.769Z,20.23
2022-08-12T03:26:00.932Z,20.34
2022-08-12T03:28:48.293Z,20.40
2022-08-12T03:31:14.232Z,20.28
2022-08-12T03:33:43.069Z,20.38
2022-08-12T03:36:17.494Z,20.53
2022-08-12T03:38:52.210Z,20.39
2022-08-12T03:41:36.342Z,20.26
2022-08-12T03:44:37.476Z,20.35
2022-08-12T03:47:40.647Z,20.13
2022-08-12T03:50:25.506Z,19.99
2022-08-12T03:53:10.031Z,20.30
2022-08-12T03:55:54.881Z,20.05
2022-08-12T03:58:39.721Z,20.05
2022-08-12T04:01:06.457Z,19.64
2022-08-12T04:03:52.095Z,19.72
2022-08-12T04:06:34.295Z,19.88
2022-08-12T04:09:04.514Z,20.03
2022-08-12T04:11:48.755Z,20.06
2022-08-12T04:14:20.145Z,20.08
2022-08-12T04:16:51.120Z,20.03
2022-08-12T04:19:18.834Z,20.05
2022-08-12T04:22:01.246Z,20.09
2022-08-12T04:24:29.081Z,20.14
2022-08-12T04:26:54.941Z,20.15
2022-08-12T04:29:22.219Z,20.05
2022-08-12T04:32:08.812Z,20.15
2022-08-12T04:34:36.874Z,20.23
2022-08-12T04:37:02.840Z,20.33
2022-08-12T04:39:29.285Z,20.31
2022-08-12T04:41:58.638Z,20.20
2022-08-12T04:44:25.725Z,20.18
2022-08-12T04:46:53.126Z,20.18
2022-08-12T04:49:20.736Z,20.23
2022-08-12T04:51:58.914Z,20.00
2022-08-12T04:54:25.839Z,19.91
2022-08-12T04:57:03.071Z,20.07
2022-08-12T04:59:32.102Z,20.01
2022-08-12T05:02:16.546Z,20.02
2022-08-12T05:04:43.735Z,20.25
2022-08-12T05:07:12.580Z,20.38
2022-08-12T05:09:59.932Z,20.41
2022-08-12T05:12:27.021Z,20.44
2022-08-12T05:14:52.823Z,20.57
2022-08-12T05:17:18.606Z,20.59
2022-08-12T05:19:45.425Z,20.67
2022-08-12T05:22:11.737Z,20.78
2022-08-12T05:24:37.718Z,20.73
2022-08-12T05:27:03.686Z,20.83
2022-08-12T05:30:07.353Z,20.87
2022-08-12T05:32:19.851Z,21.02
2022-08-12T05:34:49.589Z,20.95
2022-08-12T05:37:15.910Z,20.97
2022-08-12T05:39:41.965Z,21.00
2022-08-12T05:42:08.799Z,20.99
2022-08-12T05:44:35.209Z,21.03
2022-08-12T05:47:01.024Z,21.07
2022-08-12T05:49:28.100Z,21.22
2022-08-12T05:51:54.060Z,21.25
2022-08-12T05:54:27.437Z,21.29
2022-08-12T05:57:06.031Z,21.08
2022-08-12T05:59:31.899Z,21.11
2022-08-12T06:02:11.619Z,21.23
2022-08-12T06:04:40.386Z,21.36
2022-08-12T06:07:59.256Z,21.34
2022-08-12T06:09:57.529Z,21.41
2022-08-12T06:12:23.447Z,21.45
2022-08-12T06:14:49.276Z,21.46
2022-08-12T06:17:16.391Z,21.50
2022-08-12T06:20:26.770Z,21.70
2022-08-12T06:22:28.070Z,21.73
2022-08-12T06:24:53.888Z,21.67
2022-08-12T06:27:20.812Z,21.68
2022-08-12T06:30:08.328Z,21.83
2022-08-12T06:32:32.947Z,21.85
2022-08-12T06:35:26.657Z,21.90
2022-08-12T06:37:56.371Z,21.81
2022-08-12T06:40:42.938Z,21.95
2022-08-12T06:43:08.760Z,22.00
2022-08-12T06:45:45.830Z,21.99
2022-08-12T06:48:12.677Z,22.09
2022-08-12T06:50:40.186Z,22.11
2022-08-12T06:53:08.688Z,22.18
2022-08-12T06:55:35.513Z,22.22
2022-08-12T06:58:09.894Z,22.34
2022-08-12T07:00:36.565Z,22.33
2022-08-12T07:03:16.447Z,22.35
2022-08-12T07:05:49.464Z,22.46
2022-08-12T07:08:16.995Z,22.51
2022-08-12T07:10:52.717Z,22.52
2022-08-12T07:13:19.602Z,22.49
2022-08-12T07:15:45.943Z,22.55
2022-08-12T07:18:19.533Z,22.70
2022-08-12T07:20:52.697Z,22.62
2022-08-12T07:23:18.862Z,22.71
2022-08-12T07:25:45.096Z,22.79
2022-08-12T07:28:17.131Z,22.86
2022-08-12T07:30:44.624Z,22.84
2022-08-12T07:33:11.634Z,22.91
2022-08-12T07:35:47.103Z,23.02
2022-08-12T07:38:30.439Z,23.05
2022-08-12T07:41:29.123Z,23.09
2022-08-12T07:44:04.478Z,23.11
2022-08-12T07:46:38.645Z,23.13
2022-08-12T07:49:07.976Z,23.23
2022-08-12T07:51:33.888Z,23.31
2022-08-12T07:54:03.039Z,23.32
2022-08-12T07:56:32.924Z,23.37
2022-08-12T07:59:00.383Z,23.52
2022-08-12T08:01:26.307Z,23.54
2022-08-12T08:04:16.448Z,23.64
2022-08-12T08:06:45.024Z,23.61
2022-08-12T08:09:13.523Z,23.72
2022-08-12T08:11:58.933Z,23.72
2022-08-12T08:14:28.342Z,23.78
2022-08-12T08:16:59.441Z,23.92
2022-08-12T08:19:28.339Z,23.90
2022-08-12T08:21:56.048Z,23.87
2022-08-12T08:24:25.164Z,23.85
2022-08-12T08:26:53.585Z,23.91
2022-08-12T08:29:21.187Z,23.88
2022-08-12T08:31:53.959Z,23.97
2022-08-12T08:34:33.711Z,24.04
2022-08-12T08:37:10.581Z,24.26
2022-08-12T08:39:41.438Z,24.21
2022-08-12T08:42:25.844Z,24.13
2022-08-12T08:44:57.852Z,23.99
2022-08-12T08:47:24.775Z,24.21
2022-08-12T08:49:50.595Z,24.14
2022-08-12T08:52:39.607Z,24.18
2022-08-12T08:55:08.591Z,24.27
2022-08-12T08:57:43.574Z,24.20
2022-08-12T09:00:15.854Z,24.41
2022-08-12T09:02:42.328Z,24.41
2022-08-12T09:10:51.472Z,24.71
2022-08-12T09:13:29.286Z,24.68
2022-08-12T09:16:16.242Z,24.77
2022-08-12T09:18:47.155Z,24.76
2022-08-12T09:21:13.255Z,24.75
2022-08-12T09:24:00.012Z,24.73
2022-08-12T09:26:30.099Z,24.76
2022-08-12T09:28:57.306Z,24.86
2022-08-12T09:32:03.543Z,24.93
2022-08-12T09:34:26.088Z,25.02
2022-08-12T09:37:00.742Z,25.07
2022-08-12T09:42:44.018Z,25.33
2022-08-12T09:45:23.017Z,25.10
2022-08-12T09:47:59.642Z,25.32
2022-08-12T09:50:26.797Z,25.38
2022-08-12T09:53:05.954Z,25.44
2022-08-12T09:56:05.361Z,25.65
2022-08-12T09:58:58.968Z,25.58
2022-08-12T10:01:15.236Z,25.73
2022-08-12T10:04:02.873Z,25.92
2022-08-12T10:06:32.236Z,26.03
2022-08-12T10:09:06.764Z,26.07
2022-08-12T10:12:07.723Z,26.28
2022-08-12T10:14:37.125Z,26.47
2022-08-12T10:17:08.932Z,26.48
2022-08-12T10:19:37.102Z,26.86
2022-08-12T10:22:05.305Z,27.13
2022-08-12T10:24:31.136Z,27.22
2022-08-12T10:27:26.140Z,27.26
2022-08-12T10:30:40.141Z,27.60
2022-08-12T10:32:58.927Z,27.65
2022-08-12T10:35:38.287Z,27.60
2022-08-12T10:38:35.648Z,27.23
2022-08-12T10:41:12.349Z,27.30
2022-08-12T10:43:55.635Z,27.57
2022-08-12T10:46:23.629Z,27.87
2022-08-12T10:49:05.531Z,27.53
2022-08-12T10:52:04.932Z,27.94
2022-08-12T10:54:30.996Z,28.31
2022-08-12T10:56:59.841Z,28.82
2022-08-12T10:59:39.156Z,29.08
2022-08-12T11:04:28.595Z,29.52
2022-08-12T11:05:01.980Z,29.85
2022-08-12T11:08:34.826Z,29.39
2022-08-12T11:10:36.036Z,29.57
2022-08-12T11:13:02.827Z,29.60
2022-08-12T11:16:03.238Z,29.86
2022-08-12T11:18:18.616Z,29.80
2022-08-12T11:20:47.158Z,29.35
2022-08-12T11:23:35.865Z,29.53
2022-08-12T11:26:04.997Z,29.49
2022-08-12T11:28:33.836Z,29.39
2022-08-12T11:31:06.120Z,29.55
2022-08-12T11:34:04.920Z,30.06
2022-08-12T11:36:21.936Z,30.04
2022-08-12T11:38:50.846Z,30.40
2022-08-12T11:41:31.527Z,30.47
2022-08-12T11:44:30.648Z,30.88
2022-08-12T11:46:51.314Z,30.96
2022-08-12T11:49:31.254Z,30.66
2022-08-12T11:52:00.126Z,31.33
2022-08-12T11:54:26.469Z,31.00
2022-08-12T11:56:59.710Z,31.59
2022-08-12T12:02:15.390Z,31.38
2022-08-12T12:04:43.528Z,31.48
2022-08-12T12:07:11.223Z,31.61
2022-08-12T12:09:52.898Z,31.64
2022-08-12T12:12:21.555Z,31.70
2022-08-12T12:14:54.247Z,31.95
2022-08-12T12:17:23.084Z,31.37
2022-08-12T12:19:48.946Z,31.71
2022-08-12T12:22:15.834Z,31.82
2022-08-12T12:24:50.357Z,31.64
2022-08-12T12:27:19.726Z,31.88
2022-08-12T12:30:13.602Z,32.11
2022-08-12T12:32:32.133Z,32.38
2022-08-12T12:35:14.152Z,32.43
2022-08-12T12:38:11.996Z,32.52
2022-08-12T12:40:40.848Z,32.69
2022-08-12T12:43:08.316Z,32.55
2022-08-12T12:45:35.750Z,33.05
2022-08-12T12:48:05.798Z,33.13
2022-08-12T12:50:42.709Z,33.22
2022-08-12T12:54:08.796Z,33.21
2022-08-12T12:56:10.420Z,32.67
2022-08-12T12:58:36.608Z,32.38
2022-08-12T13:01:04.938Z,32.22
2022-08-12T13:03:53.446Z,32.16
2022-08-12T13:06:29.945Z,32.06
2022-08-12T13:08:56.702Z,31.85
2022-08-12T13:11:39.024Z,32.17
2022-08-12T13:14:29.604Z,32.07
2022-08-12T13:17:03.382Z,31.61
2022-08-12T13:19:36.676Z,32.18
2022-08-12T13:22:21.078Z,32.56
2022-08-12T13:24:54.932Z,32.82
2022-08-12T13:27:34.424Z,32.83
2022-08-12T13:30:04.319Z,32.77
2022-08-12T13:32:33.071Z,32.90
2022-08-12T13:35:03.989Z,32.98
2022-08-12T13:37:44.129Z,33.20
2022-08-12T13:40:16.574Z,33.14
2022-08-12T13:42:43.926Z,33.10
2022-08-12T13:45:10.901Z,33.15
2022-08-12T13:47:56.529Z,33.14
2022-08-12T13:50:31.738Z,33.16
2022-08-12T13:53:40.068Z,33.55
2022-08-12T13:56:13.855Z,33.19
2022-08-12T13:58:43.705Z,33.21
2022-08-12T14:01:10.334Z,32.79
2022-08-12T14:03:50.208Z,32.31
2022-08-12T14:06:18.745Z,31.99
2022-08-12T14:08:44.667Z,32.10
2022-08-12T14:11:16.218Z,32.47
2022-08-12T14:14:03.854Z,32.71
2022-08-12T14:16:37.486Z,32.49
2022-08-12T14:19:22.203Z,32.66
2022-08-12T14:22:00.974Z,32.85
2022-08-12T14:24:36.420Z,33.07
2022-08-12T14:27:09.257Z,32.61
2022-08-12T14:30:05.107Z,33.08
2022-08-12T14:32:26.645Z,32.44
2022-08-12T14:34:52.646Z,32.37
2022-08-12T14:37:55.899Z,32.51
2022-08-12T14:40:08.744Z,32.27
2022-08-12T14:42:34.819Z,32.28
2022-08-12T14:45:02.070Z,32.43
2022-08-12T14:47:29.256Z,32.52
2022-08-12T14:50:58.237Z,32.70
2022-08-12T14:55:28.343Z,32.30
2022-08-12T14:58:24.174Z,32.65
2022-08-12T15:01:08.851Z,32.88
2022-08-12T15:03:52.433Z,32.30
2022-08-12T15:06:44.691Z,32.47
2022-08-12T15:09:11.892Z,32.56
2022-08-12T15:11:54.539Z,32.82
2022-08-12T15:14:21.094Z,32.74
2022-08-12T15:16:48.560Z,32.48
2022-08-12T15:20:22.430Z,32.37
2022-08-12T15:22:37.786Z,32.35
2022-08-12T15:24:48.040Z,32.37
2022-08-12T15:27:13.931Z,32.69
2022-08-12T15:29:40.607Z,32.43
2022-08-12T15:32:15.903Z,31.95
2022-08-12T15:34:42.141Z,31.91
2022-08-12T15:37:09.253Z,31.91
2022-08-12T15:39:35.294Z,32.43
2022-08-12T15:42:02.130Z,32.16
2022-08-12T15:44:41.612Z,31.60
2022-08-12T15:47:09.287Z,31.88
2022-08-12T15:49:55.087Z,32.01
2022-08-12T15:52:27.366Z,31.67
2022-08-12T15:54:58.468Z,31.92
2022-08-12T15:57:26.160Z,32.22
2022-08-12T16:00:06.685Z,31.91
2022-08-12T16:02:47.325Z,31.96
2022-08-12T16:06:10.550Z,31.89
2022-08-12T16:08:13.240Z,32.05
2022-08-12T16:10:44.273Z,32.14
2022-08-12T16:13:17.533Z,32.15
2022-08-12T16:16:01.441Z,31.86
2022-08-12T16:18:30.154Z,31.99
2022-08-12T16:20:56.976Z,31.74
2022-08-12T16:23:36.360Z,31.77
2022-08-12T16:26:14.550Z,31.73
2022-08-12T16:28:43.222Z,31.52
2022-08-12T16:31:18.607Z,31.59
2022-08-12T16:33:59.665Z,31.65
2022-08-12T16:36:27.784Z,31.45
2022-08-12T16:38:53.881Z,31.35
2022-08-12T16:41:21.612Z,31.39
2022-08-12T16:43:47.850Z,31.06
2022-08-12T16:46:31.481Z,31.35
2022-08-12T16:48:59.604Z,31.22
2022-08-12T16:51:30.625Z,31.15
2022-08-12T16:54:03.395Z,31.21
2022-08-12T16:56:29.236Z,31.17
2022-08-12T16:58:56.687Z,30.47
2022-08-12T17:01:22.587Z,30.55
2022-08-12T17:04:09.642Z,30.32
2022-08-12T17:06:43.258Z,30.93
2022-08-12T17:09:17.835Z,30.77
2022-08-12T17:11:46.806Z,30.14
2022-08-12T17:14:15.465Z,30.01
2022-08-12T17:16:42.708Z,30.01
2022-08-12T17:19:09.455Z,30.30
2022-08-12T17:21:41.351Z,30.01
2022-08-12T17:24:22.327Z,30.06
2022-08-12T17:26:49.905Z,30.01
2022-08-12T17:29:18.822Z,29.74
2022-08-12T17:32:02.392Z,29.67
2022-08-12T17:34:48.191Z,29.57
2022-08-12T17:37:15.606Z,29.52
2022-08-12T17:40:12.383Z,29.52
2022-08-12T17:42:32.875Z,29.32
2022-08-12T17:45:17.748Z,29.14
2022-08-12T17:48:01.507Z,28.68
2022-08-12T17:50:38.053Z,28.91
2022-08-12T17:53:08.153Z,28.87
2022-08-12T17:55:43.954Z,28.43
2022-08-12T17:58:16.622Z,28.34
2022-08-12T18:00:45.023Z,28.29
2022-08-12T18:04:04.689Z,28.13
2022-08-12T18:06:06.107Z,28.26
2022-08-12T18:08:34.905Z,28.02
2022-08-12T18:11:38.352Z,27.88
2022-08-12T18:14:05.813Z,27.90
2022-08-12T18:16:33.789Z,27.68
2022-08-12T18:19:01.827Z,27.61
2022-08-12T18:21:27.908Z,27.35
2022-08-12T18:24:21.702Z,27.33
2022-08-12T18:26:48.881Z,27.21
2022-08-12T18:29:14.908Z,27.08
2022-08-12T18:31:44.674Z,26.84
2022-08-12T18:34:26.822Z,26.72
2022-08-12T18:36:55.640Z,26.80
2022-08-12T18:39:21.746Z,26.79
2022-08-12T18:41:49.225Z,26.71
2022-08-12T18:44:15.121Z,26.39
2022-08-12T18:46:47.653Z,26.32
2022-08-12T18:49:34.967Z,26.19
2022-08-12T18:52:05.315Z,26.14
2022-08-12T18:54:41.425Z,26.20
2022-08-12T18:57:19.841Z,26.05
2022-08-12T19:00:06.860Z,25.87
2022-08-12T19:02:36.351Z,25.76
2022-08-12T19:05:09.429Z,25.58
2022-08-12T19:07:49.367Z,25.55
2022-08-12T19:10:24.369Z,25.61
2022-08-12T19:13:10.587Z,25.54
2022-08-12T19:20:14.007Z,25.38
2022-08-12T19:22:40.735Z,25.29
2022-08-12T19:25:22.991Z,25.16
2022-08-12T19:28:08.922Z,25.05
2022-08-12T19:31:04.396Z,25.03
2022-08-12T19:33:31.225Z,25.11
2022-08-12T19:36:07.293Z,24.95
2022-08-12T19:38:46.813Z,24.79
2022-08-12T19:41:23.142Z,24.66
2022-08-12T19:44:00.636Z,24.64
2022-08-12T19:46:42.633Z,24.73
2022-08-12T19:49:19.802Z,24.43
2022-08-12T19:51:51.089Z,24.43
2022-08-12T19:54:22.322Z,24.39
2022-08-12T19:56:50.806Z,24.38
2022-08-12T19:59:43.051Z,24.43
2022-08-12T20:02:21.306Z,24.36
2022-08-12T20:06:06.996Z,24.39
2022-08-12T20:07:57.054Z,24.41
2022-08-12T20:10:35.530Z,24.30
2022-08-12T20:13:18.619Z,24.17
2022-08-12T20:15:50.359Z,24.34
2022-08-12T20:18:19.153Z,24.28
2022-08-12T20:21:02.307Z,24.25
2022-08-12T20:24:00.541Z,24.14
2022-08-12T20:26:23.184Z,24.09
2022-08-12T20:28:49.156Z,24.06
2022-08-12T20:31:15.167Z,24.06
2022-08-12T20:33:55.875Z,23.91
2022-08-12T20:36:41.095Z,23.95
2022-08-12T20:39:34.290Z,23.74
2022-08-12T20:42:07.360Z,23.73
2022-08-12T20:44:35.723Z,23.97
2022-08-12T20:47:18.109Z,23.89
2022-08-12T20:49:56.060Z,23.86
2022-08-12T20:52:30.093Z,23.81
2022-08-12T20:54:57.018Z,23.83
2022-08-12T20:57:23.121Z,23.80
2022-08-12T20:59:51.857Z,23.82
2022-08-12T21:02:19.594Z,23.66
2022-08-12T21:05:16.343Z,23.64
2022-08-12T21:07:51.559Z,23.57
2022-08-12T21:10:20.864Z,23.34
2022-08-12T21:12:48.220Z,23.31
2022-08-12T21:15:23.944Z,23.31
2022-08-12T21:18:10.868Z,23.15
2022-08-12T21:20:51.482Z,23.11
2022-08-12T21:23:20.167Z,23.12
2022-08-12T21:25:47.493Z,23.11
2022-08-12T21:28:18.240Z,23.11
2022-08-12T21:31:10.963Z,23.13
2022-08-12T21:33:31.971Z,23.00
2022-08-12T21:36:22.247Z,23.14
2022-08-12T21:38:50.503Z,23.00
2022-08-12T21:41:19.483Z,22.98
2022-08-12T21:43:49.630Z,22.92
2022-08-12T21:46:34.737Z,22.95
2022-08-12T21:49:04.937Z,22.93
2022-08-12T21:51:49.811Z,23.01
2022-08-12T21:54:23.899Z,22.88
2022-08-12T21:56:52.323Z,22.73
2022-08-12T21:59:21.119Z,22.70
2022-08-12T22:01:48.681Z,22.70
2022-08-12T22:04:35.524Z,22.78
2022-08-12T22:07:01.855Z,22.74
2022-08-12T22:09:29.077Z,22.73
2022-08-12T22:12:20.547Z,22.63
2022-08-12T22:14:49.960Z,22.61
2022-08-12T22:17:20.275Z,22.73
2022-08-12T22:19:49.795Z,22.79
2022-08-12T22:22:16.144Z,22.69
2022-08-12T22:24:43.149Z,22.62
2022-08-12T22:27:32.241Z,22.53
2022-08-12T22:30:17.018Z,22.58
2022-08-12T22:32:49.699Z,22.63
2022-08-12T22:35:47.230Z,22.46
2022-08-12T22:38:22.739Z,22.34
2022-08-12T22:40:58.138Z,22.36
2022-08-12T22:44:00.217Z,22.43
2022-08-12T22:46:52.942Z,22.24
2022-08-12T22:49:49.154Z,22.24
2022-08-12T22:52:12.170Z,22.13
2022-08-12T22:54:46.439Z,22.16
2022-08-12T22:57:48.952Z,22.32
2022-08-12T23:00:24.047Z,22.31
2022-08-12T23:02:56.940Z,22.28
2022-08-12T23:05:56.649Z,22.26
2022-08-12T23:08:17.753Z,22.21
2022-08-12T23:10:45.058Z,22.29
2022-08-12T23:13:29.851Z,22.29
2022-08-12T23:16:09.664Z,22.24
2022-08-12T23:18:45.344Z,22.23
2022-08-12T23:21:17.824Z,21.98
2022-08-12T23:24:09.238Z,22.08
2022-08-12T23:26:54.156Z,22.00
2022-08-12T23:29:29.746Z,22.06
2022-08-12T23:32:06.611Z,21.91
2022-08-12T23:34:36.871Z,21.93
2022-08-12T23:37:07.893Z,21.92
2022-08-12T23:40:06.830Z,21.90
2022-08-12T23:42:21.451Z,21.91
2022-08-12T23:44:56.953Z,21.99
2022-08-12T23:47:23.875Z,21.88
2022-08-12T23:49:57.834Z,21.83
2022-08-12T23:52:28.626Z,21.67
2022-08-12T23:55:24.081Z,21.70
2022-08-12T23:58:18.118Z,21.76
